LKPC weather

Panensky Tynec Airport
Panensky Tynec, Ústí nad Labem Region, Czech Republic

Public forecast

Using degrees Celsius for public forecast. Weather courtesy of forecast.io.

Closest aviation weather report (METAR) to Panensky Tynec Airport

Closest report is Václav Havel Airport Prague, 17.6 nm (32.5 km) SE. Retrieved 2019/12/10 01:30 UTC (18 minutes ago):

LKPR 100130Z 30013KT 9999 FEW024 BKN040 04/01 Q1013 NOSIG

Closest aviation forecast (TAF) to Panensky Tynec Airport

Closest forecast is Václav Havel Airport Prague, 17.6 nm (32.5 km) SE. Retrieved 2019-12-10 00:15 UTC (2 hours ago):

TAF LKPR 092300Z 1000/1106 26014KT 9999 SCT033 TEMPO 1000/1004 RA BKN025 BECMG 1000/1001 31014KT TEMPO 1001/1012 32016G28KT BECMG 1012/1014 CAVOK BECMG 1016/1020 22008KT